sensor_id;sensor_type;location;lat;lon;timestamp;pressure;altitude;pressure_sealevel;temperature;humidity
21096;BME280;10706;49.036;12.112;2023-05-11T00:02:12;97435.81;;;10.26;100.00
21096;BME280;10706;49.036;12.112;2023-05-11T00:04:38;97436.16;;;10.30;100.00
21096;BME280;10706;49.036;12.112;2023-05-11T00:07:03;97437.44;;;10.27;100.00
21096;BME280;10706;49.036;12.112;2023-05-11T00:09:29;97441.03;;;10.33;100.00
21096;BME280;10706;49.036;12.112;2023-05-11T00:11:55;97437.22;;;10.29;100.00
21096;BME280;10706;49.036;12.112;2023-05-11T00:14:21;97441.16;;;10.26;100.00
21096;BME280;10706;49.036;12.112;2023-05-11T00:16:47;97442.91;;;10.21;100.00
21096;BME280;10706;49.036;12.112;2023-05-11T00:19:12;97437.25;;;10.17;100.00
21096;BME280;10706;49.036;12.112;2023-05-11T00:21:38;97438.09;;;10.18;100.00
21096;BME280;10706;49.036;12.112;2023-05-11T00:24:04;97430.06;;;10.18;100.00
21096;BME280;10706;49.036;12.112;2023-05-11T00:26:30;97437.53;;;10.16;100.00
21096;BME280;10706;49.036;12.112;2023-05-11T00:28:56;97433.31;;;10.20;100.00
21096;BME280;10706;49.036;12.112;2023-05-11T00:31:21;97424.25;;;10.21;100.00
21096;BME280;10706;49.036;12.112;2023-05-11T00:33:48;97426.69;;;10.22;100.00
21096;BME280;10706;49.036;12.112;2023-05-11T00:36:13;97425.41;;;10.25;100.00
21096;BME280;10706;49.036;12.112;2023-05-11T00:38:39;97418.44;;;10.24;100.00
21096;BME280;10706;49.036;12.112;2023-05-11T00:41:06;97413.44;;;10.27;100.00
21096;BME280;10706;49.036;12.112;2023-05-11T00:43:33;97414.13;;;10.23;100.00
21096;BME280;10706;49.036;12.112;2023-05-11T00:45:59;97411.13;;;10.31;100.00
21096;BME280;10706;49.036;12.112;2023-05-11T00:48:26;97412.06;;;10.25;100.00
21096;BME280;10706;49.036;12.112;2023-05-11T00:50:52;97412.88;;;10.25;100.00
21096;BME280;10706;49.036;12.112;2023-05-11T00:53:18;97413.09;;;10.24;100.00
21096;BME280;10706;49.036;12.112;2023-05-11T00:55:44;97418.69;;;10.22;100.00
21096;BME280;10706;49.036;12.112;2023-05-11T00:58:10;97411.56;;;10.28;100.00
21096;BME280;10706;49.036;12.112;2023-05-11T01:00:36;97412.63;;;10.27;100.00
21096;BME280;10706;49.036;12.112;2023-05-11T01:03:02;97410.44;;;10.24;100.00
21096;BME280;10706;49.036;12.112;2023-05-11T01:05:51;97409.69;;;10.28;100.00
21096;BME280;10706;49.036;12.112;2023-05-11T01:08:28;97407.38;;;10.32;100.00
21096;BME280;10706;49.036;12.112;2023-05-11T01:13:59;97412.03;;;10.37;100.00
21096;BME280;10706;49.036;12.112;2023-05-11T01:16:30;97407.94;;;10.34;100.00
21096;BME280;10706;49.036;12.112;2023-05-11T01:19:38;97410.38;;;10.36;100.00
21096;BME280;10706;49.036;12.112;2023-05-11T01:22:22;97407.47;;;10.37;100.00
21096;BME280;10706;49.036;12.112;2023-05-11T01:31:07;97400.56;;;10.24;100.00
21096;BME280;10706;49.036;12.112;2023-05-11T01:33:43;97406.06;;;10.18;100.00
21096;BME280;10706;49.036;12.112;2023-05-11T01:36:12;97404.84;;;10.08;100.00
21096;BME280;10706;49.036;12.112;2023-05-11T01:38:40;97402.88;;;10.04;100.00
21096;BME280;10706;49.036;12.112;2023-05-11T01:41:19;97400.22;;;10.04;100.00
21096;BME280;10706;49.036;12.112;2023-05-11T01:43:54;97391.16;;;10.05;100.00
21096;BME280;10706;49.036;12.112;2023-05-11T01:46:25;97398.59;;;10.03;100.00
21096;BME280;10706;49.036;12.112;2023-05-11T01:48:55;97399.41;;;10.03;100.00
21096;BME280;10706;49.036;12.112;2023-05-11T01:51:29;97406.72;;;10.08;100.00
21096;BME280;10706;49.036;12.112;2023-05-11T01:53:58;97407.28;;;10.10;100.00
21096;BME280;10706;49.036;12.112;2023-05-11T01:56:26;97402.50;;;10.12;100.00
21096;BME280;10706;49.036;12.112;2023-05-11T01:58:53;97409.88;;;10.22;100.00
21096;BME280;10706;49.036;12.112;2023-05-11T02:01:20;97403.22;;;10.24;100.00
21096;BME280;10706;49.036;12.112;2023-05-11T02:03:47;97403.56;;;10.28;100.00
21096;BME280;10706;49.036;12.112;2023-05-11T02:06:15;97401.47;;;10.30;100.00
21096;BME280;10706;49.036;12.112;2023-05-11T02:08:44;97405.56;;;10.21;100.00
21096;BME280;10706;49.036;12.112;2023-05-11T02:11:12;97413.56;;;10.21;100.00
21096;BME280;10706;49.036;12.112;2023-05-11T02:13:42;97407.03;;;10.28;100.00
21096;BME280;10706;49.036;12.112;2023-05-11T02:16:10;97406.78;;;10.30;100.00
21096;BME280;10706;49.036;12.112;2023-05-11T02:18:39;97405.56;;;10.21;100.00
21096;BME280;10706;49.036;12.112;2023-05-11T02:21:08;97408.06;;;10.10;100.00
21096;BME280;10706;49.036;12.112;2023-05-11T02:23:35;97411.22;;;10.07;100.00
21096;BME280;10706;49.036;12.112;2023-05-11T02:26:02;97407.97;;;10.05;100.00
21096;BME280;10706;49.036;12.112;2023-05-11T02:28:29;97404.75;;;10.03;100.00
21096;BME280;10706;49.036;12.112;2023-05-11T02:31:00;97406.94;;;10.06;100.00
21096;BME280;10706;49.036;12.112;2023-05-11T02:33:35;97403.22;;;10.07;100.00
21096;BME280;10706;49.036;12.112;2023-05-11T02:36:05;97401.09;;;10.09;100.00
21096;BME280;10706;49.036;12.112;2023-05-11T02:38:34;97397.31;;;10.05;100.00
21096;BME280;10706;49.036;12.112;2023-05-11T02:41:05;97396.97;;;10.02;100.00
21096;BME280;10706;49.036;12.112;2023-05-11T02:43:35;97398.84;;;10.01;100.00
21096;BME280;10706;49.036;12.112;2023-05-11T02:46:05;97403.13;;;10.02;100.00
21096;BME280;10706;49.036;12.112;2023-05-11T02:48:40;97411.22;;;10.07;100.00
21096;BME280;10706;49.036;12.112;2023-05-11T02:51:10;97400.88;;;10.11;100.00
21096;BME280;10706;49.036;12.112;2023-05-11T02:53:37;97404.66;;;10.15;100.00
21096;BME280;10706;49.036;12.112;2023-05-11T02:56:05;97397.31;;;10.22;100.00
21096;BME280;10706;49.036;12.112;2023-05-11T02:58:31;97395.13;;;10.31;100.00
21096;BME280;10706;49.036;12.112;2023-05-11T03:00:58;97398.22;;;10.28;100.00
21096;BME280;10706;49.036;12.112;2023-05-11T03:03:25;97398.78;;;10.30;100.00
21096;BME280;10706;49.036;12.112;2023-05-11T03:05:52;97397.78;;;10.31;100.00
21096;BME280;10706;49.036;12.112;2023-05-11T03:08:18;97395.22;;;10.36;100.00
21096;BME280;10706;49.036;12.112;2023-05-11T03:10:44;97395.22;;;10.36;100.00
21096;BME280;10706;49.036;12.112;2023-05-11T03:13:11;97395.50;;;10.40;100.00
21096;BME280;10706;49.036;12.112;2023-05-11T03:15:37;97395.25;;;10.41;100.00
21096;BME280;10706;49.036;12.112;2023-05-11T03:18:05;97398.75;;;10.42;100.00
21096;BME280;10706;49.036;12.112;2023-05-11T03:20:35;97397.00;;;10.47;100.00
21096;BME280;10706;49.036;12.112;2023-05-11T03:23:02;97393.34;;;10.37;100.00
21096;BME280;10706;49.036;12.112;2023-05-11T03:25:30;97397.03;;;10.36;100.00
21096;BME280;10706;49.036;12.112;2023-05-11T03:27:56;97398.91;;;10.35;100.00
21096;BME280;10706;49.036;12.112;2023-05-11T03:30:24;97393.44;;;10.30;100.00
21096;BME280;10706;49.036;12.112;2023-05-11T03:32:51;97388.13;;;10.30;100.00
21096;BME280;10706;49.036;12.112;2023-05-11T03:35:17;97382.78;;;10.30;100.00
21096;BME280;10706;49.036;12.112;2023-05-11T03:37:44;97382.56;;;10.31;100.00
21096;BME280;10706;49.036;12.112;2023-05-11T03:40:11;97380.69;;;10.32;100.00
21096;BME280;10706;49.036;12.112;2023-05-11T03:42:40;97383.13;;;10.34;100.00
21096;BME280;10706;49.036;12.112;2023-05-11T03:45:07;97382.34;;;10.33;100.00
21096;BME280;10706;49.036;12.112;2023-05-11T03:47:35;97374.31;;;10.33;100.00
21096;BME280;10706;49.036;12.112;2023-05-11T03:50:05;97379.75;;;10.38;100.00
21096;BME280;10706;49.036;12.112;2023-05-11T03:52:31;97383.00;;;10.40;100.00
21096;BME280;10706;49.036;12.112;2023-05-11T03:54:57;97375.47;;;10.37;100.00
21096;BME280;10706;49.036;12.112;2023-05-11T03:57:26;97375.69;;;10.36;100.00
21096;BME280;10706;49.036;12.112;2023-05-11T03:59:52;97374.88;;;10.35;100.00
21096;BME280;10706;49.036;12.112;2023-05-11T04:02:18;97373.59;;;10.38;100.00
21096;BME280;10706;49.036;12.112;2023-05-11T04:04:44;97378.03;;;10.32;100.00
21096;BME280;10706;49.036;12.112;2023-05-11T04:07:09;97368.44;;;10.31;100.00
21096;BME280;10706;49.036;12.112;2023-05-11T04:09:35;97363.75;;;10.38;100.00
21096;BME280;10706;49.036;12.112;2023-05-11T04:12:01;97371.00;;;10.43;100.00
21096;BME280;10706;49.036;12.112;2023-05-11T04:14:27;97372.38;;;10.45;100.00
21096;BME280;10706;49.036;12.112;2023-05-11T04:16:52;97370.03;;;10.49;100.00
21096;BME280;10706;49.036;12.112;2023-05-11T04:19:18;97374.09;;;10.52;100.00
21096;BME280;10706;49.036;12.112;2023-05-11T04:21:44;97367.94;;;10.51;100.00
21096;BME280;10706;49.036;12.112;2023-05-11T04:24:11;97377.78;;;10.50;100.00
21096;BME280;10706;49.036;12.112;2023-05-11T04:26:37;97374.66;;;10.54;100.00
21096;BME280;10706;49.036;12.112;2023-05-11T04:29:02;97367.88;;;10.46;100.00
21096;BME280;10706;49.036;12.112;2023-05-11T04:31:29;97369.13;;;10.43;100.00
21096;BME280;10706;49.036;12.112;2023-05-11T04:33:55;97370.22;;;10.42;100.00
21096;BME280;10706;49.036;12.112;2023-05-11T04:36:21;97368.44;;;10.48;100.00
21096;BME280;10706;49.036;12.112;2023-05-11T04:38:47;97372.69;;;10.49;100.00
21096;BME280;10706;49.036;12.112;2023-05-11T04:41:12;97375.13;;;10.50;100.00
21096;BME280;10706;49.036;12.112;2023-05-11T04:43:39;97369.78;;;10.50;100.00
21096;BME280;10706;49.036;12.112;2023-05-11T04:46:05;97373.44;;;10.44;100.00
21096;BME280;10706;49.036;12.112;2023-05-11T04:48:31;97363.31;;;10.46;100.00
21096;BME280;10706;49.036;12.112;2023-05-11T04:50:57;97375.88;;;10.46;100.00
21096;BME280;10706;49.036;12.112;2023-05-11T04:53:23;97374.56;;;10.48;100.00
21096;BME280;10706;49.036;12.112;2023-05-11T04:55:49;97374.31;;;10.50;100.00
21096;BME280;10706;49.036;12.112;2023-05-11T04:58:15;97369.63;;;10.57;100.00
21096;BME280;10706;49.036;12.112;2023-05-11T05:00:41;97368.25;;;10.55;100.00
21096;BME280;10706;49.036;12.112;2023-05-11T05:03:07;97378.69;;;10.56;100.00
21096;BME280;10706;49.036;12.112;2023-05-11T05:05:33;97367.75;;;10.58;100.00
21096;BME280;10706;49.036;12.112;2023-05-11T05:07:58;97369.06;;;10.55;100.00
21096;BME280;10706;49.036;12.112;2023-05-11T05:10:24;97376.84;;;10.57;100.00
21096;BME280;10706;49.036;12.112;2023-05-11T05:12:50;97369.13;;;10.60;100.00
21096;BME280;10706;49.036;12.112;2023-05-11T05:15:16;97376.34;;;10.60;100.00
21096;BME280;10706;49.036;12.112;2023-05-11T05:17:42;97371.63;;;10.67;100.00
21096;BME280;10706;49.036;12.112;2023-05-11T05:20:08;97374.22;;;10.62;100.00
21096;BME280;10706;49.036;12.112;2023-05-11T05:22:34;97375.34;;;10.66;100.00
21096;BME280;10706;49.036;12.112;2023-05-11T05:24:59;97380.78;;;10.71;100.00
21096;BME280;10706;49.036;12.112;2023-05-11T05:27:25;97368.81;;;10.74;100.00
21096;BME280;10706;49.036;12.112;2023-05-11T05:29:51;97374.88;;;10.69;100.00
21096;BME280;10706;49.036;12.112;2023-05-11T05:32:17;97375.19;;;10.73;100.00
21096;BME280;10706;49.036;12.112;2023-05-11T05:34:43;97385.41;;;10.76;100.00
21096;BME280;10706;49.036;12.112;2023-05-11T05:37:11;97377.75;;;10.84;100.00
21096;BME280;10706;49.036;12.112;2023-05-11T05:39:37;97378.97;;;10.94;100.00
21096;BME280;10706;49.036;12.112;2023-05-11T05:42:03;97378.63;;;10.90;100.00
21096;BME280;10706;49.036;12.112;2023-05-11T05:44:29;97384.06;;;10.95;100.00
21096;BME280;10706;49.036;12.112;2023-05-11T05:46:54;97382.63;;;10.87;100.00
21096;BME280;10706;49.036;12.112;2023-05-11T05:49:20;97386.09;;;10.88;100.00
21096;BME280;10706;49.036;12.112;2023-05-11T05:51:46;97384.22;;;10.88;100.00
21096;BME280;10706;49.036;12.112;2023-05-11T05:54:12;97384.84;;;10.74;100.00
21096;BME280;10706;49.036;12.112;2023-05-11T05:56:38;97392.00;;;10.73;100.00
21096;BME280;10706;49.036;12.112;2023-05-11T05:59:06;97389.53;;;10.66;100.00
21096;BME280;10706;49.036;12.112;2023-05-11T06:01:34;97388.69;;;10.66;100.00
21096;BME280;10706;49.036;12.112;2023-05-11T06:04:00;97393.47;;;10.64;100.00
21096;BME280;10706;49.036;12.112;2023-05-11T06:06:26;97389.22;;;10.63;100.00
21096;BME280;10706;49.036;12.112;2023-05-11T06:08:52;97396.22;;;10.69;100.00
21096;BME280;10706;49.036;12.112;2023-05-11T06:11:18;97390.56;;;10.65;100.00
21096;BME280;10706;49.036;12.112;2023-05-11T06:13:44;97397.69;;;10.60;100.00
21096;BME280;10706;49.036;12.112;2023-05-11T06:16:10;97391.38;;;10.66;100.00
21096;BME280;10706;49.036;12.112;2023-05-11T06:18:36;97399.66;;;10.64;100.00
21096;BME280;10706;49.036;12.112;2023-05-11T06:21:01;97401.56;;;10.69;100.00
21096;BME280;10706;49.036;12.112;2023-05-11T06:23:27;97399.56;;;10.76;100.00
21096;BME280;10706;49.036;12.112;2023-05-11T06:25:53;97398.31;;;10.84;100.00
21096;BME280;10706;49.036;12.112;2023-05-11T06:28:18;97399.75;;;10.92;100.00
21096;BME280;10706;49.036;12.112;2023-05-11T06:30:47;97397.84;;;10.87;100.00
21096;BME280;10706;49.036;12.112;2023-05-11T06:33:13;97392.97;;;10.84;100.00
21096;BME280;10706;49.036;12.112;2023-05-11T06:35:39;97396.69;;;10.83;100.00
21096;BME280;10706;49.036;12.112;2023-05-11T06:38:04;97403.59;;;10.79;100.00
21096;BME280;10706;49.036;12.112;2023-05-11T06:40:30;97408.03;;;10.73;100.00
21096;BME280;10706;49.036;12.112;2023-05-11T06:42:56;97399.00;;;10.74;100.00
21096;BME280;10706;49.036;12.112;2023-05-11T06:45:21;97401.41;;;10.76;100.00
21096;BME280;10706;49.036;12.112;2023-05-11T06:47:48;97400.25;;;10.88;100.00
21096;BME280;10706;49.036;12.112;2023-05-11T06:50:13;97392.41;;;10.82;100.00
21096;BME280;10706;49.036;12.112;2023-05-11T06:52:39;97395.66;;;10.84;100.00
21096;BME280;10706;49.036;12.112;2023-05-11T06:55:05;97393.88;;;10.89;100.00
21096;BME280;10706;49.036;12.112;2023-05-11T06:57:31;97399.97;;;10.85;100.00
21096;BME280;10706;49.036;12.112;2023-05-11T06:59:57;97400.66;;;10.80;100.00
21096;BME280;10706;49.036;12.112;2023-05-11T07:02:23;97391.34;;;10.83;100.00
21096;BME280;10706;49.036;12.112;2023-05-11T07:04:48;97393.31;;;10.87;100.00
21096;BME280;10706;49.036;12.112;2023-05-11T07:07:14;97391.69;;;10.86;100.00
21096;BME280;10706;49.036;12.112;2023-05-11T07:09:40;97397.84;;;10.87;100.00
21096;BME280;10706;49.036;12.112;2023-05-11T07:12:06;97397.53;;;10.83;100.00
21096;BME280;10706;49.036;12.112;2023-05-11T07:14:32;97396.13;;;10.81;100.00
21096;BME280;10706;49.036;12.112;2023-05-11T07:16:58;97395.56;;;10.79;100.00
21096;BME280;10706;49.036;12.112;2023-05-11T07:19:23;97402.63;;;10.85;100.00
21096;BME280;10706;49.036;12.112;2023-05-11T07:21:49;97395.72;;;10.89;100.00
21096;BME280;10706;49.036;12.112;2023-05-11T07:24:15;97399.75;;;10.92;100.00
21096;BME280;10706;49.036;12.112;2023-05-11T07:26:41;97400.72;;;11.02;100.00
21096;BME280;10706;49.036;12.112;2023-05-11T07:29:07;97400.16;;;11.00;100.00
21096;BME280;10706;49.036;12.112;2023-05-11T07:31:33;97398.28;;;11.01;100.00
21096;BME280;10706;49.036;12.112;2023-05-11T07:34:00;97400.97;;;11.01;100.00
21096;BME280;10706;49.036;12.112;2023-05-11T07:36:26;97393.03;;;11.06;100.00
21096;BME280;10706;49.036;12.112;2023-05-11T07:38:52;97403.91;;;11.21;100.00
21096;BME280;10706;49.036;12.112;2023-05-11T07:41:18;97398.66;;;11.26;100.00
21096;BME280;10706;49.036;12.112;2023-05-11T07:43:45;97398.13;;;11.29;100.00
21096;BME280;10706;49.036;12.112;2023-05-11T07:46:11;97405.09;;;11.31;100.00
21096;BME280;10706;49.036;12.112;2023-05-11T07:48:37;97393.72;;;11.18;100.00
21096;BME280;10706;49.036;12.112;2023-05-11T07:51:03;97404.91;;;11.15;100.00
21096;BME280;10706;49.036;12.112;2023-05-11T07:53:29;97406.38;;;11.06;100.00
21096;BME280;10706;49.036;12.112;2023-05-11T07:55:54;97402.47;;;11.14;100.00
21096;BME280;10706;49.036;12.112;2023-05-11T07:58:20;97394.84;;;11.22;100.00
21096;BME280;10706;49.036;12.112;2023-05-11T08:00:46;97389.78;;;11.26;100.00
21096;BME280;10706;49.036;12.112;2023-05-11T08:03:12;97397.19;;;11.41;100.00
21096;BME280;10706;49.036;12.112;2023-05-11T08:05:38;97397.91;;;11.53;100.00
21096;BME280;10706;49.036;12.112;2023-05-11T08:08:04;97399.94;;;11.46;100.00
21096;BME280;10706;49.036;12.112;2023-05-11T08:10:30;97394.34;;;11.70;100.00
21096;BME280;10706;49.036;12.112;2023-05-11T08:12:56;97397.06;;;11.75;100.00
21096;BME280;10706;49.036;12.112;2023-05-11T08:15:23;97392.47;;;11.70;100.00
21096;BME280;10706;49.036;12.112;2023-05-11T08:17:49;97396.16;;;11.64;100.00
21096;BME280;10706;49.036;12.112;2023-05-11T08:20:15;97397.66;;;11.82;100.00
21096;BME280;10706;49.036;12.112;2023-05-11T08:22:41;97393.75;;;11.90;100.00
21096;BME280;10706;49.036;12.112;2023-05-11T08:25:07;97393.66;;;12.06;100.00
21096;BME280;10706;49.036;12.112;2023-05-11T08:27:33;97391.66;;;12.19;100.00
21096;BME280;10706;49.036;12.112;2023-05-11T08:29:59;97399.94;;;12.17;100.00
21096;BME280;10706;49.036;12.112;2023-05-11T08:32:24;97393.25;;;12.20;100.00
21096;BME280;10706;49.036;12.112;2023-05-11T08:34:51;97401.13;;;12.32;100.00
21096;BME280;10706;49.036;12.112;2023-05-11T08:37:17;97389.19;;;12.44;100.00
21096;BME280;10706;49.036;12.112;2023-05-11T08:39:43;97403.81;;;12.32;100.00
21096;BME280;10706;49.036;12.112;2023-05-11T08:42:09;97396.16;;;12.13;100.00
21096;BME280;10706;49.036;12.112;2023-05-11T08:44:42;97395.06;;;12.14;100.00
21096;BME280;10706;49.036;12.112;2023-05-11T08:47:10;97396.41;;;12.12;100.00
21096;BME280;10706;49.036;12.112;2023-05-11T08:49:36;97392.31;;;12.04;100.00
21096;BME280;10706;49.036;12.112;2023-05-11T08:52:04;97392.56;;;12.30;100.00
21096;BME280;10706;49.036;12.112;2023-05-11T08:54:30;97394.31;;;12.19;100.00
21096;BME280;10706;49.036;12.112;2023-05-11T08:56:57;97399.53;;;12.03;100.00
21096;BME280;10706;49.036;12.112;2023-05-11T08:59:26;97405.94;;;12.02;100.00
21096;BME280;10706;49.036;12.112;2023-05-11T09:01:54;97402.53;;;12.12;100.00
21096;BME280;10706;49.036;12.112;2023-05-11T09:04:22;97400.59;;;12.35;100.00
21096;BME280;10706;49.036;12.112;2023-05-11T09:06:49;97405.34;;;12.55;100.00
21096;BME280;10706;49.036;12.112;2023-05-11T09:09:15;97396.81;;;12.63;100.00
21096;BME280;10706;49.036;12.112;2023-05-11T09:11:44;97398.34;;;12.91;100.00
21096;BME280;10706;49.036;12.112;2023-05-11T09:14:11;97400.31;;;13.54;100.00
21096;BME280;10706;49.036;12.112;2023-05-11T09:16:37;97399.03;;;13.72;100.00
21096;BME280;10706;49.036;12.112;2023-05-11T09:19:04;97394.25;;;13.84;100.00
21096;BME280;10706;49.036;12.112;2023-05-11T09:21:31;97390.56;;;14.31;100.00
21096;BME280;10706;49.036;12.112;2023-05-11T09:23:58;97397.28;;;14.44;99.08
21096;BME280;10706;49.036;12.112;2023-05-11T09:26:24;97394.56;;;14.54;97.90
21096;BME280;10706;49.036;12.112;2023-05-11T09:28:58;97391.38;;;14.27;96.85
21096;BME280;10706;49.036;12.112;2023-05-11T09:34:20;97396.94;;;13.84;97.50
21096;BME280;10706;49.036;12.112;2023-05-11T09:36:51;97398.75;;;13.63;98.44
21096;BME280;10706;49.036;12.112;2023-05-11T09:39:34;97400.81;;;13.40;98.14
21096;BME280;10706;49.036;12.112;2023-05-11T09:42:17;97398.81;;;13.26;97.76
21096;BME280;10706;49.036;12.112;2023-05-11T09:44:44;97396.41;;;12.76;100.00
21096;BME280;10706;49.036;12.112;2023-05-11T09:49:40;97395.34;;;12.45;100.00
21096;BME280;10706;49.036;12.112;2023-05-11T09:52:12;97399.38;;;12.48;100.00
21096;BME280;10706;49.036;12.112;2023-05-11T09:54:51;97392.00;;;12.60;100.00
21096;BME280;10706;49.036;12.112;2023-05-11T09:57:30;97396.91;;;12.73;100.00
21096;BME280;10706;49.036;12.112;2023-05-11T09:59:58;97396.44;;;12.87;100.00
21096;BME280;10706;49.036;12.112;2023-05-11T10:02:27;97392.25;;;13.01;100.00
21096;BME280;10706;49.036;12.112;2023-05-11T10:04:58;97394.41;;;12.99;100.00
21096;BME280;10706;49.036;12.112;2023-05-11T10:07:32;97399.97;;;12.92;100.00
21096;BME280;10706;49.036;12.112;2023-05-11T10:10:04;97401.81;;;12.87;100.00
21096;BME280;10706;49.036;12.112;2023-05-11T10:12:32;97390.56;;;12.84;100.00
21096;BME280;10706;49.036;12.112;2023-05-11T10:15:08;97399.09;;;12.81;100.00
21096;BME280;10706;49.036;12.112;2023-05-11T10:17:35;97394.28;;;12.83;100.00
21096;BME280;10706;49.036;12.112;2023-05-11T10:20:03;97397.13;;;13.09;100.00
21096;BME280;10706;49.036;12.112;2023-05-11T10:22:30;97400.59;;;13.05;100.00
21096;BME280;10706;49.036;12.112;2023-05-11T10:24:57;97386.81;;;12.91;100.00
21096;BME280;10706;49.036;12.112;2023-05-11T10:27:24;97390.09;;;12.98;100.00
21096;BME280;10706;49.036;12.112;2023-05-11T10:29:50;97389.13;;;13.14;100.00
21096;BME280;10706;49.036;12.112;2023-05-11T10:32:17;97398.28;;;13.23;98.99
21096;BME280;10706;49.036;12.112;2023-05-11T10:34:47;97392.88;;;13.18;98.67
21096;BME280;10706;49.036;12.112;2023-05-11T10:37:14;97393.94;;;13.12;99.67
21096;BME280;10706;49.036;12.112;2023-05-11T10:39:42;97397.16;;;13.14;98.82
21096;BME280;10706;49.036;12.112;2023-05-11T10:45:07;97395.22;;;12.62;100.00
21096;BME280;10706;49.036;12.112;2023-05-11T10:51:06;97387.94;;;12.57;100.00
21096;BME280;10706;49.036;12.112;2023-05-11T10:57:31;97395.25;;;13.10;100.00
21096;BME280;10706;49.036;12.112;2023-05-11T11:00:35;97394.97;;;13.54;100.00
21096;BME280;10706;49.036;12.112;2023-05-11T11:03:13;97388.31;;;13.77;100.00
21096;BME280;10706;49.036;12.112;2023-05-11T11:05:40;97396.66;;;13.86;98.36
21096;BME280;10706;49.036;12.112;2023-05-11T11:08:08;97397.94;;;13.68;96.87
21096;BME280;10706;49.036;12.112;2023-05-11T11:10:37;97392.84;;;13.71;98.09
21096;BME280;10706;49.036;12.112;2023-05-11T11:13:08;97391.19;;;13.50;97.91
21096;BME280;10706;49.036;12.112;2023-05-11T11:18:26;97398.25;;;13.18;97.85
21096;BME280;10706;49.036;12.112;2023-05-11T11:20:54;97399.81;;;13.09;100.00
21096;BME280;10706;49.036;12.112;2023-05-11T11:26:12;97390.63;;;13.00;98.69
21096;BME280;10706;49.036;12.112;2023-05-11T11:31:29;97403.09;;;12.79;99.06
21096;BME280;10706;49.036;12.112;2023-05-11T11:33:57;97400.13;;;12.75;98.85
21096;BME280;10706;49.036;12.112;2023-05-11T11:44:40;97413.03;;;12.46;100.00
21096;BME280;10706;49.036;12.112;2023-05-11T11:47:18;97413.84;;;12.47;100.00
21096;BME280;10706;49.036;12.112;2023-05-11T11:49:50;97403.69;;;12.49;100.00
21096;BME280;10706;49.036;12.112;2023-05-11T11:54:51;97415.44;;;12.48;100.00
21096;BME280;10706;49.036;12.112;2023-05-11T12:00:02;97411.84;;;12.64;100.00
21096;BME280;10706;49.036;12.112;2023-05-11T12:02:33;97409.66;;;12.61;100.00
21096;BME280;10706;49.036;12.112;2023-05-11T12:05:00;97412.22;;;12.45;100.00
21096;BME280;10706;49.036;12.112;2023-05-11T12:07:33;97416.81;;;12.50;100.00
21096;BME280;10706;49.036;12.112;2023-05-11T12:10:03;97412.38;;;12.66;100.00
21096;BME280;10706;49.036;12.112;2023-05-11T12:12:29;97407.50;;;12.58;100.00
21096;BME280;10706;49.036;12.112;2023-05-11T12:14:55;97418.97;;;12.53;100.00
21096;BME280;10706;49.036;12.112;2023-05-11T12:17:27;97420.06;;;12.52;100.00
21096;BME280;10706;49.036;12.112;2023-05-11T12:19:54;97418.34;;;12.41;100.00
21096;BME280;10706;49.036;12.112;2023-05-11T12:22:36;97414.84;;;12.40;100.00
21096;BME280;10706;49.036;12.112;2023-05-11T12:25:06;97417.63;;;12.51;100.00
21096;BME280;10706;49.036;12.112;2023-05-11T12:27:33;97416.59;;;12.57;100.00
21096;BME280;10706;49.036;12.112;2023-05-11T12:29:58;97415.16;;;12.44;100.00
21096;BME280;10706;49.036;12.112;2023-05-11T12:32:30;97418.97;;;12.21;100.00
21096;BME280;10706;49.036;12.112;2023-05-11T12:35:01;97422.25;;;12.28;100.00
21096;BME280;10706;49.036;12.112;2023-05-11T12:37:30;97415.13;;;12.39;100.00
21096;BME280;10706;49.036;12.112;2023-05-11T12:39:57;97418.81;;;12.33;100.00
21096;BME280;10706;49.036;12.112;2023-05-11T12:42:23;97422.66;;;12.15;100.00
21096;BME280;10706;49.036;12.112;2023-05-11T12:44:50;97424.97;;;12.06;100.00
21096;BME280;10706;49.036;12.112;2023-05-11T12:47:16;97409.13;;;11.99;100.00
21096;BME280;10706;49.036;12.112;2023-05-11T12:49:42;97417.19;;;12.04;100.00
21096;BME280;10706;49.036;12.112;2023-05-11T12:52:08;97419.47;;;12.18;100.00
21096;BME280;10706;49.036;12.112;2023-05-11T12:54:36;97417.91;;;12.22;100.00
21096;BME280;10706;49.036;12.112;2023-05-11T12:57:04;97416.38;;;12.31;100.00
21096;BME280;10706;49.036;12.112;2023-05-11T12:59:39;97415.50;;;12.25;100.00
21096;BME280;10706;49.036;12.112;2023-05-11T13:02:17;97416.38;;;12.31;100.00
21096;BME280;10706;49.036;12.112;2023-05-11T13:04:45;97415.06;;;12.34;100.00
21096;BME280;10706;49.036;12.112;2023-05-11T13:07:13;97414.28;;;12.33;100.00
21096;BME280;10706;49.036;12.112;2023-05-11T13:09:39;97419.69;;;12.43;100.00
21096;BME280;10706;49.036;12.112;2023-05-11T13:12:17;97420.31;;;12.51;100.00
21096;BME280;10706;49.036;12.112;2023-05-11T13:14:48;97417.22;;;12.37;100.00
21096;BME280;10706;49.036;12.112;2023-05-11T13:19:56;97412.56;;;12.54;100.00
21096;BME280;10706;49.036;12.112;2023-05-11T13:22:22;97419.28;;;12.57;100.00
21096;BME280;10706;49.036;12.112;2023-05-11T13:24:48;97415.06;;;12.66;99.68
21096;BME280;10706;49.036;12.112;2023-05-11T13:27:15;97416.03;;;12.55;100.00
21096;BME280;10706;49.036;12.112;2023-05-11T13:29:41;97418.03;;;12.70;100.00
21096;BME280;10706;49.036;12.112;2023-05-11T13:32:07;97416.69;;;12.67;100.00
21096;BME280;10706;49.036;12.112;2023-05-11T13:34:33;97413.19;;;12.67;100.00